createdAt,value
2023-06-26T00:00:49.578Z,98949.13
2023-06-26T00:03:16.634Z,98952.19
2023-06-26T00:05:43.803Z,98951.72
2023-06-26T00:08:10.715Z,98945.75
2023-06-26T00:10:37.878Z,98950.91
2023-06-26T00:13:04.875Z,98948.16
2023-06-26T00:15:32.893Z,98952.50
2023-06-26T00:18:00.220Z,98947.03
2023-06-26T00:20:27.039Z,98947.84
2023-06-26T00:22:54.904Z,98945.09
2023-06-26T00:25:21.786Z,98940.75
2023-06-26T00:27:48.723Z,98949.47
2023-06-26T00:30:15.546Z,98945.59
2023-06-26T00:32:42.396Z,98934.31
2023-06-26T00:35:09.287Z,98933.50
2023-06-26T00:37:37.248Z,98933.50
2023-06-26T00:40:06.762Z,98919.31
2023-06-26T00:42:34.104Z,98925.44
2023-06-26T00:45:01.043Z,98936.72
2023-06-26T00:47:28.533Z,98923.31
2023-06-26T00:49:55.918Z,98922.50
2023-06-26T00:52:25.004Z,98926.38
2023-06-26T00:54:54.832Z,98927.81
2023-06-26T00:57:21.736Z,98938.28
2023-06-26T00:59:49.336Z,98933.44
2023-06-26T01:02:19.009Z,98931.66
2023-06-26T01:04:48.275Z,98937.75
2023-06-26T01:07:16.702Z,98930.50
2023-06-26T01:09:43.958Z,98936.63
2023-06-26T01:12:10.761Z,98932.56
2023-06-26T01:14:38.014Z,98934.03
2023-06-26T01:17:05.170Z,98927.25
2023-06-26T01:19:34.579Z,98930.28
2023-06-26T01:22:16.532Z,98929.47
2023-06-26T01:24:52.854Z,98927.84
2023-06-26T01:27:23.251Z,98922.50
2023-06-26T01:29:51.265Z,98932.50
2023-06-26T01:32:18.829Z,98923.19
2023-06-26T01:34:46.067Z,98926.44
2023-06-26T01:37:12.907Z,98926.94
2023-06-26T01:39:40.066Z,98930.97
2023-06-26T01:42:07.023Z,98932.25
2023-06-26T01:44:36.592Z,98930.00
2023-06-26T01:47:06.937Z,98923.09
2023-06-26T01:49:33.767Z,98925.50
2023-06-26T01:52:27.157Z,98930.66
2023-06-26T01:54:57.153Z,98927.59
2023-06-26T01:57:24.552Z,98922.63
2023-06-26T01:59:52.465Z,98938.41
2023-06-26T02:02:19.723Z,98933.91
2023-06-26T02:04:49.483Z,98930.53
2023-06-26T02:07:16.549Z,98935.91
2023-06-26T02:09:43.671Z,98933.00
2023-06-26T02:12:11.538Z,98940.28
2023-06-26T02:14:38.617Z,98934.63
2023-06-26T02:17:05.992Z,98934.47
2023-06-26T02:19:33.009Z,98933.53
2023-06-26T02:21:59.933Z,98930.69
2023-06-26T02:24:31.138Z,98933.25
2023-06-26T02:27:01.778Z,98935.53
2023-06-26T02:29:29.443Z,98927.63
2023-06-26T02:31:56.382Z,98932.13
2023-06-26T02:34:23.460Z,98933.94
2023-06-26T02:36:50.546Z,98938.13
2023-06-26T02:39:17.602Z,98933.63
2023-06-26T02:41:45.444Z,98934.56
2023-06-26T02:44:13.554Z,98938.28
2023-06-26T02:46:40.530Z,98937.97
2023-06-26T02:49:08.227Z,98942.31
2023-06-26T02:51:35.511Z,98940.38
2023-06-26T02:54:08.760Z,98940.06
2023-06-26T02:56:40.126Z,98943.78
2023-06-26T02:59:12.120Z,98941.69
2023-06-26T03:01:39.158Z,98939.56
2023-06-26T03:04:06.540Z,98930.69
2023-06-26T03:06:34.275Z,98936.66
2023-06-26T03:09:01.237Z,98941.50
2023-06-26T03:11:28.268Z,98942.78
2023-06-26T03:13:55.843Z,98938.91
2023-06-26T03:16:23.147Z,98943.28
2023-06-26T03:18:50.028Z,98939.38
2023-06-26T03:21:16.909Z,98936.50
2023-06-26T03:23:43.937Z,98935.38
2023-06-26T03:26:12.254Z,98932.28
2023-06-26T03:28:40.034Z,98931.59
2023-06-26T03:31:09.543Z,98931.38
2023-06-26T03:33:36.510Z,98929.91
2023-06-26T03:36:03.861Z,98925.97
2023-06-26T03:38:30.738Z,98924.78
2023-06-26T03:41:00.117Z,98918.13
2023-06-26T03:43:27.112Z,98920.50
2023-06-26T03:46:05.327Z,98915.78
2023-06-26T03:48:32.371Z,98915.75
2023-06-26T03:50:59.396Z,98915.66
2023-06-26T03:53:26.287Z,98910.91
2023-06-26T03:55:53.307Z,98915.53
2023-06-26T03:58:23.739Z,98912.38
2023-06-26T04:00:50.659Z,98913.25
2023-06-26T04:03:17.764Z,98908.16
2023-06-26T04:05:45.188Z,98918.75
2023-06-26T04:08:11.999Z,98916.38
2023-06-26T04:10:39.357Z,98913.91
2023-06-26T04:13:06.303Z,98905.88
2023-06-26T04:15:33.294Z,98913.59
2023-06-26T04:18:00.310Z,98917.38
2023-06-26T04:20:27.254Z,98921.34
2023-06-26T04:22:54.264Z,98919.28
2023-06-26T04:25:21.412Z,98919.78
2023-06-26T04:27:48.397Z,98917.59
2023-06-26T04:30:15.496Z,98920.94
2023-06-26T04:32:42.397Z,98918.38
2023-06-26T04:35:11.287Z,98913.88
2023-06-26T04:37:38.139Z,98918.03
2023-06-26T04:40:05.401Z,98916.81
2023-06-26T04:42:34.198Z,98917.25
2023-06-26T04:45:03.313Z,98918.78
2023-06-26T04:47:30.883Z,98924.94
2023-06-26T04:49:57.732Z,98921.16
2023-06-26T04:52:24.553Z,98909.84
2023-06-26T04:54:51.574Z,98918.66
2023-06-26T04:57:19.341Z,98913.69
2023-06-26T04:59:46.332Z,98910.66
2023-06-26T05:02:16.094Z,98911.13
2023-06-26T05:04:43.763Z,98911.13
2023-06-26T05:07:10.912Z,98920.22
2023-06-26T05:09:37.917Z,98913.53
2023-06-26T05:12:04.966Z,98915.97
2023-06-26T05:14:31.944Z,98913.66
2023-06-26T05:16:58.747Z,98908.91
2023-06-26T05:19:25.560Z,98920.44
2023-06-26T05:21:53.204Z,98912.59
2023-06-26T05:24:21.933Z,98913.47
2023-06-26T05:26:49.705Z,98917.50
2023-06-26T05:29:16.672Z,98908.03
2023-06-26T05:31:47.390Z,98914.81
2023-06-26T05:34:14.740Z,98909.72
2023-06-26T05:36:42.690Z,98906.88
2023-06-26T05:39:09.691Z,98903.94
2023-06-26T05:41:37.111Z,98908.47
2023-06-26T05:44:04.137Z,98909.50
2023-06-26T05:46:31.007Z,98901.56
2023-06-26T05:48:58.111Z,98900.75
2023-06-26T05:51:25.064Z,98915.00
2023-06-26T05:53:52.245Z,98906.84
2023-06-26T05:56:19.926Z,98908.22
2023-06-26T05:58:47.187Z,98907.13
2023-06-26T06:01:14.041Z,98907.22
2023-06-26T06:03:41.466Z,98905.34
2023-06-26T06:06:08.549Z,98907.41
2023-06-26T06:08:35.504Z,98907.47
2023-06-26T06:11:03.136Z,98902.03
2023-06-26T06:13:30.092Z,98908.84
2023-06-26T06:15:58.823Z,98904.56
2023-06-26T06:18:25.806Z,98903.47
2023-06-26T06:20:52.660Z,98911.88
2023-06-26T06:23:19.587Z,98905.63
2023-06-26T06:25:46.544Z,98901.41
2023-06-26T06:28:13.487Z,98901.50
2023-06-26T06:30:45.579Z,98899.16
2023-06-26T06:33:12.777Z,98902.72
2023-06-26T06:35:40.017Z,98894.91
2023-06-26T06:38:07.146Z,98895.34
2023-06-26T06:40:33.991Z,98900.16
2023-06-26T06:43:00.862Z,98891.94
2023-06-26T06:45:27.784Z,98888.81
2023-06-26T06:47:54.625Z,98896.41
2023-06-26T06:50:21.784Z,98889.06
2023-06-26T06:52:48.633Z,98891.53
2023-06-26T06:55:15.542Z,98893.34
2023-06-26T06:57:42.438Z,98887.94
2023-06-26T07:00:10.278Z,98888.03
2023-06-26T07:02:37.815Z,98891.66
2023-06-26T07:05:05.137Z,98888.53
2023-06-26T07:07:33.283Z,98881.09
2023-06-26T07:10:01.335Z,98886.00
2023-06-26T07:12:28.220Z,98880.53
2023-06-26T07:14:55.429Z,98887.31
2023-06-26T07:17:22.486Z,98874.25
2023-06-26T07:19:50.315Z,98876.16
2023-06-26T07:22:17.537Z,98878.06
2023-06-26T07:24:44.539Z,98877.31
2023-06-26T07:27:11.648Z,98879.00
2023-06-26T07:29:38.619Z,98870.47
2023-06-26T07:32:05.786Z,98876.50
2023-06-26T07:34:32.696Z,98879.47
2023-06-26T07:36:59.639Z,98879.91
2023-06-26T07:39:26.411Z,98878.81
2023-06-26T07:41:53.738Z,98872.94
2023-06-26T07:44:20.717Z,98866.66
2023-06-26T07:46:47.773Z,98868.34
2023-06-26T07:49:14.871Z,98862.59
2023-06-26T07:51:41.755Z,98861.09
2023-06-26T07:54:08.830Z,98861.66
2023-06-26T07:56:56.161Z,98862.56
2023-06-26T07:59:24.293Z,98859.50
2023-06-26T08:01:52.008Z,98860.00
2023-06-26T08:04:20.098Z,98853.22
2023-06-26T08:06:48.829Z,98860.91
2023-06-26T08:09:15.800Z,98863.25
2023-06-26T08:11:42.707Z,98861.78
2023-06-26T08:14:09.561Z,98860.00
2023-06-26T08:16:36.530Z,98856.63
2023-06-26T08:19:03.348Z,98859.81
2023-06-26T08:21:30.417Z,98851.03
2023-06-26T08:23:57.619Z,98855.69
2023-06-26T08:26:24.442Z,98859.56
2023-06-26T08:28:51.459Z,98861.16
2023-06-26T08:31:18.637Z,98858.81
2023-06-26T08:33:45.596Z,98857.75
2023-06-26T08:36:12.537Z,98858.97
2023-06-26T08:38:41.488Z,98848.53
2023-06-26T08:41:10.246Z,98856.28
2023-06-26T08:43:37.474Z,98862.09
2023-06-26T08:46:04.471Z,98862.75
2023-06-26T08:48:34.314Z,98858.31
2023-06-26T08:51:02.852Z,98861.03
2023-06-26T08:53:41.889Z,98861.31
2023-06-26T08:56:09.472Z,98859.72
2023-06-26T08:58:40.054Z,98865.25
2023-06-26T09:01:08.913Z,98871.59
2023-06-26T09:03:36.629Z,98860.19
2023-06-26T09:06:03.738Z,98858.53
2023-06-26T09:08:31.025Z,98852.50
2023-06-26T09:10:57.978Z,98858.00
2023-06-26T09:13:29.789Z,98861.50
2023-06-26T09:15:57.708Z,98863.84
2023-06-26T09:18:24.755Z,98863.41
2023-06-26T09:20:52.007Z,98857.72
2023-06-26T09:23:19.116Z,98858.72
2023-06-26T09:25:48.247Z,98865.22
2023-06-26T09:28:16.297Z,98866.97
2023-06-26T09:30:43.370Z,98862.44
2023-06-26T09:33:17.102Z,98857.63
2023-06-26T09:35:47.568Z,98848.06
2023-06-26T09:38:16.013Z,98848.44
2023-06-26T09:40:43.269Z,98852.00
2023-06-26T09:43:11.292Z,98858.88
2023-06-26T09:45:38.171Z,98854.66
2023-06-26T09:48:05.367Z,98852.84
2023-06-26T09:50:35.654Z,98865.66
2023-06-26T09:53:08.693Z,98848.72
2023-06-26T09:55:36.746Z,98851.50
2023-06-26T09:58:04.965Z,98849.09
2023-06-26T10:00:34.651Z,98852.59
2023-06-26T10:03:02.279Z,98858.50
2023-06-26T10:05:29.374Z,98866.03
2023-06-26T10:07:56.942Z,98857.28
2023-06-26T10:10:24.674Z,98866.31
2023-06-26T10:12:55.721Z,98859.09
2023-06-26T10:15:24.566Z,98850.63
2023-06-26T10:17:53.070Z,98844.94
2023-06-26T10:20:20.253Z,98845.97
2023-06-26T10:22:47.834Z,98846.69
2023-06-26T10:25:17.870Z,98839.56
2023-06-26T10:27:46.601Z,98839.25
2023-06-26T10:30:17.196Z,98836.63
2023-06-26T10:32:44.281Z,98830.53
2023-06-26T10:35:11.708Z,98831.16
2023-06-26T10:37:49.101Z,98822.69
2023-06-26T10:40:22.110Z,98822.56
2023-06-26T10:42:49.104Z,98820.78
2023-06-26T10:45:17.158Z,98817.41
2023-06-26T10:47:48.230Z,98807.00
2023-06-26T10:50:37.812Z,98816.00
2023-06-26T10:53:20.079Z,98809.22
2023-06-26T10:56:05.689Z,98816.72
2023-06-26T10:58:42.468Z,98812.22
2023-06-26T11:01:13.585Z,98814.44
2023-06-26T11:03:41.591Z,98809.03
2023-06-26T11:06:13.547Z,98810.72
2023-06-26T11:08:53.467Z,98808.03
2023-06-26T11:11:20.624Z,98800.97
2023-06-26T11:13:48.260Z,98811.75
2023-06-26T11:16:15.994Z,98805.47
2023-06-26T11:18:43.604Z,98805.19
2023-06-26T11:21:12.623Z,98799.44
2023-06-26T11:23:40.474Z,98800.78
2023-06-26T11:26:22.697Z,98804.53
2023-06-26T11:28:50.631Z,98804.31
2023-06-26T11:31:34.399Z,98803.56
2023-06-26T11:34:02.712Z,98805.59
2023-06-26T11:36:29.985Z,98805.28
2023-06-26T11:39:01.502Z,98798.53
2023-06-26T11:41:29.700Z,98787.00
2023-06-26T11:43:57.454Z,98788.25
2023-06-26T11:46:24.282Z,98787.97
2023-06-26T11:48:51.333Z,98783.28
2023-06-26T11:51:18.382Z,98777.41
2023-06-26T11:53:46.844Z,98775.91
2023-06-26T11:56:14.680Z,98774.41
2023-06-26T11:59:02.289Z,98776.75
2023-06-26T12:01:40.180Z,98763.84
2023-06-26T12:04:08.951Z,98767.78
2023-06-26T12:06:36.889Z,98763.31
2023-06-26T12:09:06.410Z,98768.97
2023-06-26T12:11:34.825Z,98756.34
2023-06-26T12:14:02.259Z,98744.88
2023-06-26T12:16:30.246Z,98739.19
2023-06-26T12:19:15.844Z,98740.31
2023-06-26T12:21:42.674Z,98743.72
2023-06-26T12:24:10.511Z,98737.00
2023-06-26T12:26:40.421Z,98733.00
2023-06-26T12:29:08.045Z,98729.13
2023-06-26T12:31:35.335Z,98731.50
2023-06-26T12:34:02.782Z,98726.53
2023-06-26T12:36:29.638Z,98730.34
2023-06-26T12:38:56.609Z,98726.31
2023-06-26T12:41:26.519Z,98720.41
2023-06-26T12:43:59.601Z,98723.91
2023-06-26T12:46:38.658Z,98729.66
2023-06-26T12:49:12.186Z,98725.00
2023-06-26T12:51:52.241Z,98719.81
2023-06-26T12:54:19.208Z,98717.66
2023-06-26T12:56:46.014Z,98722.16
2023-06-26T12:59:12.942Z,98732.53
2023-06-26T13:01:39.781Z,98723.75
2023-06-26T13:04:07.296Z,98724.06
2023-06-26T13:06:34.556Z,98722.75
2023-06-26T13:09:01.524Z,98722.63
2023-06-26T13:11:28.603Z,98713.72
2023-06-26T13:14:09.516Z,98715.22
2023-06-26T13:16:38.714Z,98715.09
2023-06-26T13:19:05.852Z,98717.06
2023-06-26T13:21:32.931Z,98712.28
2023-06-26T13:24:00.450Z,98715.28
2023-06-26T13:26:37.512Z,98706.97
2023-06-26T13:29:05.880Z,98698.22
2023-06-26T13:31:33.309Z,98696.34
2023-06-26T13:34:01.859Z,98688.47
2023-06-26T13:36:28.904Z,98695.06
2023-06-26T13:38:58.506Z,98692.66
2023-06-26T13:41:26.134Z,98694.19
2023-06-26T13:43:53.782Z,98692.63
2023-06-26T13:46:22.286Z,98681.63
2023-06-26T13:48:49.135Z,98693.16
2023-06-26T13:51:16.184Z,98688.78
2023-06-26T13:53:43.186Z,98683.28
2023-06-26T13:56:10.422Z,98687.81
2023-06-26T13:58:37.862Z,98677.94
2023-06-26T14:01:05.648Z,98684.09
2023-06-26T14:03:32.805Z,98681.19
2023-06-26T14:06:00.331Z,98682.06
2023-06-26T14:08:27.252Z,98690.59
2023-06-26T14:10:54.078Z,98672.69
2023-06-26T14:13:23.784Z,98685.66
2023-06-26T14:15:54.357Z,98667.22
2023-06-26T14:18:22.352Z,98663.28
2023-06-26T14:20:49.543Z,98662.28
2023-06-26T14:23:16.600Z,98664.63
2023-06-26T14:25:43.562Z,98665.97
2023-06-26T14:28:10.483Z,98668.44
2023-06-26T14:30:37.753Z,98656.00
2023-06-26T14:33:04.874Z,98665.06
2023-06-26T14:35:31.934Z,98659.28
2023-06-26T14:37:58.885Z,98660.69
2023-06-26T14:40:25.711Z,98657.78
2023-06-26T14:42:54.279Z,98662.59
2023-06-26T14:45:21.673Z,98653.88
2023-06-26T14:47:49.265Z,98659.59
2023-06-26T14:50:16.223Z,98647.19
2023-06-26T14:52:43.148Z,98642.41
2023-06-26T14:55:10.518Z,98637.19
2023-06-26T14:57:37.350Z,98641.19
2023-06-26T15:00:05.334Z,98637.03
2023-06-26T15:02:34.044Z,98635.16
2023-06-26T15:05:01.225Z,98637.56
2023-06-26T15:07:29.699Z,98631.06
2023-06-26T15:09:56.920Z,98630.16
2023-06-26T15:12:24.813Z,98625.47
2023-06-26T15:14:53.149Z,98629.09
2023-06-26T15:17:20.227Z,98631.56
2023-06-26T15:19:47.370Z,98627.28
2023-06-26T15:22:14.360Z,98620.53
2023-06-26T15:24:41.219Z,98619.00
2023-06-26T15:27:08.296Z,98617.97
2023-06-26T15:29:35.532Z,98629.78
2023-06-26T15:32:02.637Z,98619.69
2023-06-26T15:34:29.489Z,98622.19
2023-06-26T15:36:56.393Z,98614.50
2023-06-26T15:39:23.558Z,98614.72
2023-06-26T15:41:50.633Z,98618.47
2023-06-26T15:44:17.537Z,98616.50
2023-06-26T15:46:44.503Z,98632.03
2023-06-26T15:49:11.624Z,98622.28
2023-06-26T15:51:38.960Z,98629.88
2023-06-26T15:54:06.158Z,98631.84
2023-06-26T15:56:33.300Z,98636.66
2023-06-26T15:59:00.378Z,98648.38
2023-06-26T16:01:27.896Z,98648.28
2023-06-26T16:03:55.227Z,98647.25
2023-06-26T16:06:22.134Z,98649.84
2023-06-26T16:08:50.353Z,98652.03
2023-06-26T16:11:17.400Z,98648.34
2023-06-26T16:13:45.191Z,98650.03
2023-06-26T16:16:15.736Z,98655.59
2023-06-26T16:18:42.575Z,98659.88
2023-06-26T16:21:09.565Z,98662.94
2023-06-26T16:23:36.519Z,98652.84
2023-06-26T16:26:03.421Z,98660.22
2023-06-26T16:28:30.251Z,98654.84
2023-06-26T16:30:57.233Z,98657.78
2023-06-26T16:33:24.334Z,98654.81
2023-06-26T16:35:51.243Z,98660.19
2023-06-26T16:38:18.265Z,98655.19
2023-06-26T16:40:45.074Z,98660.91
2023-06-26T16:43:13.110Z,98653.56
2023-06-26T16:45:39.909Z,98647.38
2023-06-26T16:48:06.986Z,98654.59
2023-06-26T16:50:33.944Z,98655.97
2023-06-26T16:53:00.832Z,98645.81
2023-06-26T16:55:27.766Z,98651.94
2023-06-26T16:57:54.970Z,98661.25
2023-06-26T17:00:21.751Z,98646.41
2023-06-26T17:02:48.743Z,98659.28
2023-06-26T17:05:16.369Z,98652.38
2023-06-26T17:07:43.335Z,98654.53
2023-06-26T17:10:10.482Z,98651.94
2023-06-26T17:12:41.123Z,98648.94
2023-06-26T17:15:08.398Z,98654.69
2023-06-26T17:17:35.828Z,98644.66
2023-06-26T17:20:04.683Z,98651.19
2023-06-26T17:22:33.766Z,98654.63
2023-06-26T17:25:05.586Z,98654.94
2023-06-26T17:27:32.951Z,98656.03
2023-06-26T17:30:00.437Z,98660.69
2023-06-26T17:32:28.013Z,98672.00
2023-06-26T17:34:54.982Z,98662.84
2023-06-26T17:37:41.633Z,98657.59
2023-06-26T17:40:12.361Z,98659.50
2023-06-26T17:42:44.233Z,98649.53
2023-06-26T17:45:11.996Z,98653.38
2023-06-26T17:47:39.095Z,98649.72
2023-06-26T17:50:06.478Z,98656.28
2023-06-26T17:52:33.404Z,98657.38
2023-06-26T17:55:00.324Z,98655.28
2023-06-26T17:57:27.466Z,98661.44
2023-06-26T17:59:55.425Z,98665.66
2023-06-26T18:02:22.532Z,98669.03
2023-06-26T18:04:49.377Z,98668.50
2023-06-26T18:07:17.243Z,98666.00
2023-06-26T18:09:44.294Z,98665.03
2023-06-26T18:12:11.323Z,98673.56
2023-06-26T18:14:38.291Z,98668.69
2023-06-26T18:17:05.317Z,98673.25
2023-06-26T18:19:32.112Z,98670.63
2023-06-26T18:21:59.094Z,98668.38
2023-06-26T18:24:26.011Z,98672.91
2023-06-26T18:26:52.897Z,98671.94
2023-06-26T18:29:19.709Z,98675.31
2023-06-26T18:31:46.615Z,98671.53
2023-06-26T18:34:13.583Z,98668.22
2023-06-26T18:36:40.526Z,98670.81
2023-06-26T18:39:12.488Z,98677.72
2023-06-26T18:41:42.215Z,98676.34
2023-06-26T18:44:09.317Z,98676.97
2023-06-26T18:46:36.384Z,98675.97
2023-06-26T18:49:06.725Z,98671.81
2023-06-26T18:51:34.395Z,98674.81
2023-06-26T18:54:02.364Z,98671.13
2023-06-26T18:56:33.020Z,98667.94
2023-06-26T18:59:00.021Z,98667.13
2023-06-26T19:01:27.469Z,98675.41
2023-06-26T19:03:54.460Z,98677.34
2023-06-26T19:06:21.698Z,98671.84
2023-06-26T19:08:48.562Z,98672.19
2023-06-26T19:11:16.940Z,98665.78
2023-06-26T19:13:44.232Z,98660.59
2023-06-26T19:16:11.108Z,98672.78
2023-06-26T19:18:38.135Z,98671.53
2023-06-26T19:21:05.042Z,98671.06
2023-06-26T19:23:32.072Z,98664.75
2023-06-26T19:25:59.885Z,98675.00
2023-06-26T19:28:27.175Z,98664.66
2023-06-26T19:30:54.072Z,98665.81
2023-06-26T19:33:21.136Z,98658.59
2023-06-26T19:35:48.044Z,98656.97
2023-06-26T19:38:15.156Z,98658.81
2023-06-26T19:40:42.164Z,98664.31
2023-06-26T19:43:09.384Z,98655.25
2023-06-26T19:45:36.605Z,98656.06
2023-06-26T19:48:03.907Z,98656.84
2023-06-26T19:50:30.966Z,98661.22
2023-06-26T19:52:57.913Z,98655.34
2023-06-26T19:55:24.913Z,98657.31
2023-06-26T19:57:52.378Z,98660.06
2023-06-26T20:00:19.739Z,98656.50
2023-06-26T20:02:46.740Z,98656.84
2023-06-26T20:05:16.941Z,98660.31
2023-06-26T20:07:44.529Z,98667.31
2023-06-26T20:10:11.583Z,98664.09
2023-06-26T20:12:38.514Z,98663.66
2023-06-26T20:15:05.724Z,98661.25
2023-06-26T20:17:32.666Z,98660.78
2023-06-26T20:20:00.739Z,98659.53
2023-06-26T20:22:27.936Z,98651.97
2023-06-26T20:24:55.124Z,98655.06
2023-06-26T20:27:22.029Z,98651.06
2023-06-26T20:29:48.974Z,98647.34
2023-06-26T20:32:15.989Z,98644.50
2023-06-26T20:34:43.387Z,98648.28
2023-06-26T20:37:10.328Z,98647.25
2023-06-26T20:39:37.706Z,98654.47
2023-06-26T20:42:05.007Z,98659.38
2023-06-26T20:44:32.135Z,98656.75
2023-06-26T20:47:10.143Z,98656.53
2023-06-26T20:49:37.913Z,98659.38
2023-06-26T20:52:08.902Z,98659.13
2023-06-26T20:54:39.142Z,98660.03
2023-06-26T20:57:09.684Z,98656.34
2023-06-26T20:59:39.979Z,98658.66
2023-06-26T21:02:07.330Z,98669.19
2023-06-26T21:04:37.869Z,98671.94
2023-06-26T21:07:06.888Z,98668.38
2023-06-26T21:09:33.972Z,98669.19
2023-06-26T21:12:02.814Z,98675.84
2023-06-26T21:14:29.710Z,98677.44
2023-06-26T21:16:56.609Z,98663.34
2023-06-26T21:19:23.719Z,98650.28
2023-06-26T21:21:50.543Z,98638.19
2023-06-26T21:24:17.507Z,98643.47
2023-06-26T21:26:44.292Z,98644.00
2023-06-26T21:29:11.363Z,98623.47
2023-06-26T21:31:38.629Z,98602.97
2023-06-26T21:34:05.551Z,98615.91
2023-06-26T21:36:32.448Z,98612.81
2023-06-26T21:38:59.335Z,98612.81
2023-06-26T21:41:26.185Z,98620.38
2023-06-26T21:43:53.157Z,98618.94
2023-06-26T21:46:20.112Z,98613.09
2023-06-26T21:48:47.190Z,98620.53
2023-06-26T21:51:14.189Z,98618.94
2023-06-26T21:53:41.058Z,98618.44
2023-06-26T21:56:07.946Z,98627.72
2023-06-26T21:58:35.051Z,98625.19
2023-06-26T22:01:01.890Z,98617.97
2023-06-26T22:03:28.773Z,98635.78
2023-06-26T22:05:55.739Z,98627.41
2023-06-26T22:08:22.673Z,98610.00
2023-06-26T22:10:49.512Z,98615.81
2023-06-26T22:13:16.609Z,98627.16
2023-06-26T22:15:43.683Z,98628.31
2023-06-26T22:18:10.863Z,98620.06
2023-06-26T22:20:37.866Z,98616.84
2023-06-26T22:23:04.856Z,98620.72
2023-06-26T22:25:32.077Z,98620.28
2023-06-26T22:27:58.891Z,98615.56
2023-06-26T22:30:26.057Z,98618.66
2023-06-26T22:32:53.097Z,98613.50
2023-06-26T22:35:20.193Z,98615.78
2023-06-26T22:37:47.093Z,98620.00
2023-06-26T22:40:16.008Z,98607.72
2023-06-26T22:42:42.928Z,98614.69
2023-06-26T22:45:11.359Z,98608.75
2023-06-26T22:47:39.073Z,98611.03
2023-06-26T22:50:07.465Z,98614.44
2023-06-26T22:52:35.303Z,98605.75
2023-06-26T22:55:02.986Z,98601.72
2023-06-26T22:57:30.846Z,98604.81
2023-06-26T22:59:57.928Z,98613.72
2023-06-26T23:02:24.912Z,98613.25
2023-06-26T23:04:51.988Z,98607.75
2023-06-26T23:07:21.552Z,98613.25
2023-06-26T23:09:49.919Z,98614.06
2023-06-26T23:12:17.346Z,98621.50
2023-06-26T23:14:44.675Z,98619.56
2023-06-26T23:17:12.802Z,98615.19
2023-06-26T23:19:41.130Z,98617.16
2023-06-26T23:22:10.723Z,98616.69
2023-06-26T23:24:38.868Z,98609.88
2023-06-26T23:27:09.731Z,98611.69
2023-06-26T23:29:37.702Z,98612.69
2023-06-26T23:32:06.981Z,98612.56
2023-06-26T23:34:40.606Z,98608.06
2023-06-26T23:37:08.990Z,98607.13
2023-06-26T23:39:39.520Z,98607.31
2023-06-26T23:42:07.240Z,98611.03
2023-06-26T23:44:36.764Z,98614.47
2023-06-26T23:47:07.496Z,98622.56
2023-06-26T23:49:35.488Z,98616.94
2023-06-26T23:52:02.922Z,98611.31
2023-06-26T23:54:32.172Z,98609.22
2023-06-26T23:56:59.671Z,98612.63
2023-06-26T23:59:26.584Z,98617.66
